createdAt,value
2023-05-02T00:01:42.633Z,10.14
2023-05-02T00:06:49.743Z,10.09
2023-05-02T00:11:54.415Z,10.04
2023-05-02T00:17:00.048Z,10.03
2023-05-02T00:22:04.475Z,10.00
2023-05-02T00:27:08.657Z,9.96
2023-05-02T00:32:14.058Z,9.96
2023-05-02T00:37:18.641Z,9.96
2023-05-02T00:42:24.451Z,9.97
2023-05-02T00:47:29.238Z,9.96
2023-05-02T00:52:33.782Z,9.91
2023-05-02T00:57:39.000Z,9.90
2023-05-02T01:03:00.052Z,9.88
2023-05-02T01:08:31.756Z,9.85
2023-05-02T01:13:38.473Z,9.77
2023-05-02T01:18:45.652Z,9.66
2023-05-02T01:24:08.525Z,9.55
2023-05-02T01:29:15.747Z,9.38
2023-05-02T01:34:22.590Z,9.28
2023-05-02T01:39:28.302Z,9.18
2023-05-02T01:44:37.417Z,9.09
2023-05-02T01:49:44.970Z,9.02
2023-05-02T01:54:51.444Z,8.95
2023-05-02T01:59:59.873Z,8.92
2023-05-02T02:05:08.961Z,8.90
2023-05-02T02:10:14.067Z,8.91
2023-05-02T02:15:28.940Z,8.94
2023-05-02T02:20:35.953Z,8.95
2023-05-02T02:25:41.076Z,8.94
2023-05-02T02:30:45.938Z,8.92
2023-05-02T02:35:59.922Z,8.96
2023-05-02T02:41:23.564Z,9.05
2023-05-02T02:46:34.959Z,9.14
2023-05-02T02:51:45.287Z,9.22
2023-05-02T02:56:59.606Z,9.31
2023-05-02T03:06:41.004Z,9.47
2023-05-02T03:11:45.940Z,9.51
2023-05-02T03:16:51.536Z,9.55
2023-05-02T03:21:57.245Z,9.57
2023-05-02T03:27:02.080Z,9.59
2023-05-02T03:32:07.024Z,9.59
2023-05-02T03:37:11.610Z,9.58
2023-05-02T03:42:17.004Z,9.59
2023-05-02T03:47:22.186Z,9.61
2023-05-02T03:52:27.308Z,9.66
2023-05-02T03:57:31.826Z,9.72
2023-05-02T04:02:36.115Z,9.78
2023-05-02T04:07:40.315Z,9.86
2023-05-02T04:12:45.383Z,9.96
2023-05-02T04:17:50.196Z,10.06
2023-05-02T04:22:55.333Z,10.18
2023-05-02T04:27:59.889Z,10.30
2023-05-02T04:33:04.737Z,10.41
2023-05-02T04:38:10.515Z,10.53
2023-05-02T04:43:15.451Z,10.66
2023-05-02T04:48:20.212Z,10.79
2023-05-02T04:53:25.094Z,10.97
2023-05-02T04:58:30.239Z,11.11
2023-05-02T05:03:35.505Z,11.32
2023-05-02T05:08:40.380Z,11.57
2023-05-02T05:13:45.409Z,11.87
2023-05-02T05:18:50.164Z,12.30
2023-05-02T05:23:55.568Z,12.93
2023-05-02T05:29:00.733Z,14.12
2023-05-02T05:34:05.131Z,15.73
2023-05-02T05:39:09.461Z,15.96
2023-05-02T05:44:14.451Z,16.44
2023-05-02T05:49:19.109Z,17.16
2023-05-02T05:54:23.528Z,17.33
2023-05-02T05:59:29.945Z,17.49
2023-05-02T06:04:34.621Z,17.60
2023-05-02T06:09:40.037Z,17.54
2023-05-02T06:14:45.189Z,17.50
2023-05-02T06:19:50.273Z,17.54
2023-05-02T06:24:54.813Z,17.56
2023-05-02T06:30:00.048Z,17.34
2023-05-02T06:35:03.869Z,17.43
2023-05-02T06:40:08.973Z,17.57
2023-05-02T06:45:13.770Z,17.69
2023-05-02T06:50:19.018Z,18.33
2023-05-02T06:55:24.282Z,19.06
2023-05-02T07:00:28.954Z,19.43
2023-05-02T07:05:33.877Z,19.30
2023-05-02T07:10:37.875Z,19.23
2023-05-02T07:15:42.651Z,19.42
2023-05-02T07:20:47.584Z,19.52
2023-05-02T07:25:53.320Z,19.16
2023-05-02T07:30:57.602Z,18.72
2023-05-02T07:36:03.754Z,18.21
2023-05-02T07:41:08.411Z,17.74
2023-05-02T07:46:13.207Z,17.38
2023-05-02T07:51:20.825Z,17.09
2023-05-02T07:56:25.772Z,17.06
2023-05-02T08:01:31.012Z,17.07
2023-05-02T08:06:36.843Z,17.02
2023-05-02T08:11:41.687Z,16.82
2023-05-02T08:16:46.637Z,16.71
2023-05-02T08:21:51.016Z,16.51
2023-05-02T08:26:54.522Z,16.39
2023-05-02T08:31:58.443Z,16.38
2023-05-02T08:37:02.624Z,16.48
2023-05-02T08:42:10.323Z,16.42
2023-05-02T08:47:16.107Z,16.35
2023-05-02T08:52:20.804Z,16.28
2023-05-02T08:57:24.962Z,16.31
2023-05-02T09:02:37.882Z,16.45
2023-05-02T09:07:49.510Z,16.65
2023-05-02T09:12:53.161Z,16.88
2023-05-02T09:17:56.890Z,17.08
2023-05-02T09:23:00.972Z,17.37
2023-05-02T09:28:04.832Z,17.76
2023-05-02T09:33:09.040Z,18.08
2023-05-02T09:38:24.360Z,18.32
2023-05-02T09:43:28.752Z,18.24
2023-05-02T09:48:34.110Z,18.07
2023-05-02T09:53:45.216Z,18.06
2023-05-02T09:58:49.143Z,18.21
2023-05-02T10:03:53.907Z,18.51
2023-05-02T10:08:58.649Z,18.78
2023-05-02T10:14:03.530Z,19.13
2023-05-02T10:19:13.923Z,19.43
2023-05-02T10:24:19.309Z,19.43
2023-05-02T10:29:23.949Z,19.52
2023-05-02T10:34:29.571Z,19.82
2023-05-02T10:39:34.364Z,19.93
2023-05-02T10:44:43.099Z,19.92
2023-05-02T10:50:03.562Z,19.92
2023-05-02T10:55:22.672Z,19.82
2023-05-02T11:00:33.336Z,19.88
2023-05-02T11:06:11.243Z,19.91
2023-05-02T11:11:40.219Z,19.90
2023-05-02T11:17:07.567Z,19.83
2023-05-02T11:22:28.961Z,19.99
2023-05-02T11:27:39.101Z,20.04
2023-05-02T11:33:07.008Z,19.97
2023-05-02T11:38:15.720Z,19.94
2023-05-02T11:43:22.463Z,19.86
2023-05-02T11:48:31.278Z,19.78
2023-05-02T11:53:42.103Z,19.79
2023-05-02T11:58:47.572Z,19.84
2023-05-02T12:04:08.102Z,19.91
2023-05-02T12:09:19.821Z,19.77
2023-05-02T12:14:34.534Z,19.63
2023-05-02T12:19:43.683Z,19.47
2023-05-02T12:24:51.458Z,19.41
2023-05-02T12:29:55.816Z,19.42
2023-05-02T12:35:01.436Z,19.60
2023-05-02T12:40:20.172Z,19.72
2023-05-02T12:45:25.292Z,19.63
2023-05-02T12:50:40.607Z,19.66
2023-05-02T12:55:46.082Z,19.45
2023-05-02T13:00:51.307Z,19.22
2023-05-02T13:05:59.925Z,19.24
2023-05-02T13:11:04.485Z,19.31
2023-05-02T13:16:09.164Z,19.43
2023-05-02T13:21:12.599Z,19.49
2023-05-02T13:26:16.844Z,19.65
2023-05-02T13:31:20.804Z,19.57
2023-05-02T13:36:25.453Z,19.62
2023-05-02T13:41:29.558Z,19.80
2023-05-02T13:46:37.751Z,19.99
2023-05-02T13:51:42.310Z,20.01
2023-05-02T13:56:46.335Z,19.92
2023-05-02T14:01:50.072Z,19.87
2023-05-02T14:06:54.932Z,19.85
2023-05-02T14:11:59.623Z,19.92
2023-05-02T14:17:04.034Z,20.03
2023-05-02T14:22:07.819Z,20.07
2023-05-02T14:27:16.521Z,20.04
2023-05-02T14:32:20.636Z,20.05
2023-05-02T14:37:23.704Z,20.10
2023-05-02T14:42:27.164Z,20.08
2023-05-02T14:47:33.481Z,19.99
2023-05-02T14:52:37.024Z,19.92
2023-05-02T14:57:41.038Z,19.95
2023-05-02T15:02:45.419Z,19.96
2023-05-02T15:07:48.639Z,19.90
2023-05-02T15:12:53.552Z,19.93
2023-05-02T15:17:58.308Z,19.99
2023-05-02T15:23:04.499Z,19.98
2023-05-02T15:28:09.374Z,19.92
2023-05-02T15:33:13.687Z,19.85
2023-05-02T15:38:19.630Z,19.70
2023-05-02T15:43:24.758Z,19.48
2023-05-02T15:48:30.389Z,19.36
2023-05-02T15:53:35.494Z,19.18
2023-05-02T15:58:40.741Z,18.89
2023-05-02T16:03:46.984Z,18.57
2023-05-02T16:08:51.855Z,18.26
2023-05-02T16:13:55.946Z,17.96
2023-05-02T16:19:00.124Z,17.60
2023-05-02T16:24:04.464Z,17.28
2023-05-02T16:29:08.346Z,17.09
2023-05-02T16:34:12.116Z,16.92
2023-05-02T16:39:15.979Z,16.84
2023-05-02T16:44:20.031Z,16.76
2023-05-02T16:49:24.455Z,16.66
2023-05-02T16:54:28.553Z,16.57
2023-05-02T16:59:32.836Z,16.47
2023-05-02T17:04:37.297Z,16.38
2023-05-02T17:09:42.306Z,16.32
2023-05-02T17:14:46.939Z,16.23
2023-05-02T17:19:52.407Z,16.14
2023-05-02T17:24:56.727Z,16.04
2023-05-02T17:30:00.908Z,15.95
2023-05-02T17:35:06.702Z,15.76
2023-05-02T17:40:11.601Z,15.58
2023-05-02T17:45:19.327Z,15.48
2023-05-02T17:50:26.306Z,15.38
2023-05-02T17:55:33.193Z,15.26
2023-05-02T18:00:39.524Z,15.14
2023-05-02T18:05:49.928Z,15.02
2023-05-02T18:10:57.396Z,14.90
2023-05-02T18:16:03.200Z,14.82
2023-05-02T18:21:12.953Z,14.72
2023-05-02T18:26:17.002Z,14.68
2023-05-02T18:31:22.081Z,14.64
2023-05-02T18:36:31.304Z,14.60
2023-05-02T18:41:37.491Z,14.52
2023-05-02T18:46:43.544Z,14.46
2023-05-02T18:51:48.276Z,14.40
2023-05-02T18:56:55.646Z,14.33
2023-05-02T19:02:01.225Z,14.25
2023-05-02T19:07:06.274Z,14.17
2023-05-02T19:12:11.883Z,14.11
2023-05-02T19:17:17.792Z,14.07
2023-05-02T19:22:26.268Z,14.01
2023-05-02T19:27:32.846Z,13.95
2023-05-02T19:32:38.968Z,13.86
2023-05-02T19:37:44.648Z,13.77
2023-05-02T19:42:50.728Z,13.69
2023-05-02T19:47:56.731Z,13.64
2023-05-02T19:53:05.470Z,13.60
2023-05-02T19:58:10.295Z,13.54
2023-05-02T20:03:17.068Z,13.48
2023-05-02T20:08:24.056Z,13.45
2023-05-02T20:13:27.886Z,13.41
2023-05-02T20:18:32.833Z,13.39
2023-05-02T20:23:37.438Z,13.34
2023-05-02T20:28:41.938Z,13.30
2023-05-02T20:33:46.350Z,13.27
2023-05-02T20:38:51.293Z,13.22
2023-05-02T20:43:55.950Z,13.18
2023-05-02T20:49:01.049Z,13.15
2023-05-02T20:54:05.718Z,13.11
2023-05-02T20:59:09.892Z,13.06
2023-05-02T21:04:13.872Z,13.01
2023-05-02T21:09:20.299Z,12.97
2023-05-02T21:14:27.115Z,12.93
2023-05-02T21:19:34.509Z,12.89
2023-05-02T21:24:38.225Z,12.86
2023-05-02T21:29:42.382Z,12.79
2023-05-02T21:34:58.360Z,12.76
2023-05-02T21:40:07.027Z,12.68
2023-05-02T21:45:13.718Z,12.62
2023-05-02T21:50:18.921Z,12.58
2023-05-02T21:55:23.779Z,12.56
2023-05-02T22:00:28.954Z,12.52
2023-05-02T22:05:33.271Z,12.48
2023-05-02T22:10:42.670Z,12.45
2023-05-02T22:15:48.109Z,12.42
2023-05-02T22:20:53.320Z,12.39
2023-05-02T22:25:57.719Z,12.37
2023-05-02T22:31:01.583Z,12.31
2023-05-02T22:36:04.845Z,12.26
2023-05-02T22:41:10.007Z,12.21
2023-05-02T22:46:13.759Z,12.14
2023-05-02T22:51:18.830Z,12.08
2023-05-02T22:56:25.185Z,12.01
2023-05-02T23:01:30.591Z,11.95
2023-05-02T23:06:40.630Z,11.91
2023-05-02T23:11:45.163Z,11.88
2023-05-02T23:16:54.388Z,11.85
2023-05-02T23:22:00.282Z,11.79
2023-05-02T23:27:07.577Z,11.73
2023-05-02T23:32:12.530Z,11.68
2023-05-02T23:37:16.653Z,11.64
2023-05-02T23:42:22.429Z,11.59
2023-05-02T23:47:27.794Z,11.53
2023-05-02T23:52:33.468Z,11.47
2023-05-02T23:57:38.746Z,11.44
